Time;durP1;ratioP1;P1;durP2;ratioP2;P2;SDS_P1;SDS_P2;PMS_P1;PMS_P2;Temp;Humidity;BMP_temperature;BMP_pressure;BME280_temperature;BME280_humidity;BME280_pressure;Samples;Min_cycle;Max_cycle;Signal;HPM_P1;HPM_P2
2023/05/27 00:02:21;;;;;;;19.13;5.50;;;10.20;99.90;;;;;;5068113;28;20100;-74
2023/05/27 00:04:47;;;;;;;25.15;5.78;;;10.10;99.90;;;;;;5064748;28;20158;-77
2023/05/27 00:07:12;;;;;;;25.95;6.50;;;10.10;99.90;;;;;;5042660;28;20052;-75
2023/05/27 00:09:38;;;;;;;21.27;5.65;;;10.20;99.90;;;;;;5071294;28;20079;-76
2023/05/27 00:12:04;;;;;;;24.27;6.18;;;10.10;99.90;;;;;;5067722;28;20102;-74
2023/05/27 00:14:30;;;;;;;19.65;5.55;;;10.10;99.90;;;;;;5055724;28;20162;-75
2023/05/27 00:16:56;;;;;;;25.60;5.55;;;10.10;99.90;;;;;;5063135;28;20104;-73
2023/05/27 00:19:23;;;;;;;21.70;5.07;;;10.10;99.90;;;;;;5056826;28;20399;-76
2023/05/27 00:21:52;;;;;;;25.08;5.82;;;10.20;99.90;;;;;;5056525;28;20017;-74
2023/05/27 00:24:17;;;;;;;17.98;4.55;;;10.20;99.90;;;;;;5067794;28;20025;-74
2023/05/27 00:26:43;;;;;;;23.27;4.75;;;10.10;99.90;;;;;;5063338;28;20040;-75
2023/05/27 00:29:12;;;;;;;21.05;5.60;;;10.10;99.90;;;;;;5071634;28;20145;-74
2023/05/27 00:31:37;;;;;;;21.20;5.60;;;10.10;99.90;;;;;;5073120;28;20036;-74
2023/05/27 00:34:03;;;;;;;23.42;5.72;;;10.10;99.90;;;;;;5074370;28;20063;-74
2023/05/27 00:36:31;;;;;;;25.95;6.05;;;10.10;99.90;;;;;;5056225;28;20056;-72
2023/05/27 00:38:57;;;;;;;20.60;5.32;;;10.10;99.90;;;;;;5073329;28;20028;-75
2023/05/27 00:41:23;;;;;;;20.83;5.32;;;10.10;99.90;;;;;;5059946;28;20021;-73
2023/05/27 00:43:48;;;;;;;19.10;5.28;;;10.00;99.90;;;;;;5073361;28;20050;-75
2023/05/27 00:46:15;;;;;;;19.30;6.22;;;10.00;99.90;;;;;;5072954;28;20028;-73
2023/05/27 00:48:41;;;;;;;18.25;5.40;;;10.00;99.90;;;;;;5066627;28;20023;-73
2023/05/27 00:51:06;;;;;;;24.13;5.80;;;9.90;99.90;;;;;;5068978;28;20021;-74
2023/05/27 00:53:50;;;;;;;21.33;5.60;;;9.90;99.90;;;;;;5055401;28;20110;-76
2023/05/27 00:56:16;;;;;;;23.10;5.50;;;9.80;99.90;;;;;;5061708;28;20370;-74
2023/05/27 00:58:42;;;;;;;19.70;6.20;;;9.80;99.90;;;;;;5055295;28;20103;-78
2023/05/27 01:01:08;;;;;;;24.23;5.93;;;9.80;99.90;;;;;;5057817;28;20067;-76
2023/05/27 01:03:35;;;;;;;23.35;6.43;;;9.80;99.90;;;;;;5070267;28;20073;-78
2023/05/27 01:06:24;;;;;;;24.77;6.45;;;9.70;99.90;;;;;;5058207;28;20457;-76
2023/05/27 01:09:09;;;;;;;23.60;6.15;;;9.70;99.90;;;;;;5042043;28;20397;-73
2023/05/27 01:11:41;;;;;;;19.48;5.68;;;9.60;99.90;;;;;;5065479;28;20025;-73
2023/05/27 01:14:10;;;;;;;22.67;5.75;;;9.60;99.90;;;;;;5057174;28;20033;-73
2023/05/27 01:16:43;;;;;;;24.85;5.97;;;9.60;99.90;;;;;;5060460;28;20040;-74
2023/05/27 01:19:14;;;;;;;22.95;6.60;;;9.60;99.90;;;;;;5059776;28;20020;-73
2023/05/27 01:21:44;;;;;;;25.25;5.85;;;9.60;99.90;;;;;;5062264;28;20059;-73
2023/05/27 01:24:10;;;;;;;26.05;6.15;;;9.50;99.90;;;;;;5065010;28;20024;-76
2023/05/27 01:26:36;;;;;;;24.77;5.97;;;9.50;99.90;;;;;;5063346;28;20036;-74
2023/05/27 01:29:03;;;;;;;25.83;6.55;;;9.50;99.90;;;;;;5061692;28;20051;-73
2023/05/27 01:31:41;;;;;;;22.58;7.18;;;9.50;99.90;;;;;;5040976;28;20029;-72
2023/05/27 01:34:13;;;;;;;20.20;5.40;;;9.50;99.90;;;;;;5061886;28;20036;-73
2023/05/27 01:36:54;;;;;;;23.02;5.65;;;9.50;99.90;;;;;;5060018;28;20106;-73
2023/05/27 01:39:22;;;;;;;20.08;5.63;;;9.40;99.90;;;;;;5062102;28;20025;-73
2023/05/27 01:41:48;;;;;;;22.50;6.97;;;9.40;99.90;;;;;;5059147;28;20073;-73
2023/05/27 01:44:17;;;;;;;22.65;5.85;;;9.40;99.90;;;;;;5063883;28;20353;-73
2023/05/27 01:46:43;;;;;;;20.63;5.85;;;9.40;99.90;;;;;;5056652;28;20044;-73
2023/05/27 01:49:09;;;;;;;19.80;6.20;;;9.40;99.90;;;;;;5052010;28;20028;-73
2023/05/27 01:51:36;;;;;;;25.20;6.82;;;9.40;99.90;;;;;;5066121;28;20522;-75
2023/05/27 01:54:02;;;;;;;19.23;5.85;;;9.40;99.90;;;;;;5059659;28;20041;-73
2023/05/27 01:56:29;;;;;;;23.75;6.10;;;9.40;99.90;;;;;;5062476;28;20484;-73
2023/05/27 01:58:54;;;;;;;19.33;5.40;;;9.40;99.90;;;;;;5056202;28;20028;-73
2023/05/27 02:01:21;;;;;;;21.08;6.18;;;9.40;99.90;;;;;;5056023;28;20025;-74
2023/05/27 02:03:47;;;;;;;24.13;6.65;;;9.40;99.90;;;;;;5063285;28;20052;-74
2023/05/27 02:06:13;;;;;;;18.63;5.53;;;9.40;99.90;;;;;;5050472;28;20495;-74
2023/05/27 02:08:38;;;;;;;23.40;5.57;;;9.40;99.90;;;;;;5068728;28;20101;-73
2023/05/27 02:11:04;;;;;;;19.50;5.95;;;9.40;99.90;;;;;;5061326;28;20028;-76
2023/05/27 02:13:29;;;;;;;25.67;6.50;;;9.30;99.90;;;;;;5039191;28;20139;-73
2023/05/27 02:15:55;;;;;;;19.17;5.53;;;9.30;99.90;;;;;;5067957;28;20116;-74
2023/05/27 02:18:20;;;;;;;18.10;5.95;;;9.30;99.90;;;;;;5055667;28;20025;-74
2023/05/27 02:20:46;;;;;;;21.30;5.85;;;9.20;99.90;;;;;;5055816;28;20046;-77
2023/05/27 02:23:12;;;;;;;16.60;5.43;;;9.20;99.90;;;;;;5057740;28;20175;-75
2023/05/27 02:25:38;;;;;;;22.10;6.20;;;9.20;99.90;;;;;;5056711;28;20035;-74
2023/05/27 02:28:03;;;;;;;22.70;6.05;;;9.20;99.90;;;;;;5069080;28;20108;-76
2023/05/27 02:30:30;;;;;;;24.52;7.13;;;9.20;99.90;;;;;;5060788;28;20128;-76
2023/05/27 02:32:56;;;;;;;21.17;6.03;;;9.20;99.90;;;;;;5062122;28;20067;-74
2023/05/27 02:35:22;;;;;;;20.90;5.88;;;9.10;99.90;;;;;;5063197;28;20258;-74
2023/05/27 02:37:47;;;;;;;24.15;6.07;;;9.10;99.90;;;;;;5055658;28;20021;-75
2023/05/27 02:40:23;;;;;;;19.13;5.88;;;9.10;99.90;;;;;;5037367;28;20055;-74
2023/05/27 02:42:49;;;;;;;24.02;6.22;;;9.00;99.90;;;;;;5058305;28;20032;-74
2023/05/27 02:45:15;;;;;;;28.08;7.13;;;9.00;99.90;;;;;;5071699;28;20246;-74
2023/05/27 02:47:41;;;;;;;21.40;6.32;;;9.00;99.90;;;;;;5054081;28;20056;-74
2023/05/27 02:50:07;;;;;;;23.33;6.10;;;9.00;99.90;;;;;;5068326;28;20074;-73
2023/05/27 02:52:32;;;;;;;19.92;6.15;;;8.90;99.90;;;;;;5040247;28;20102;-72
2023/05/27 02:54:58;;;;;;;21.92;6.38;;;9.00;99.90;;;;;;5064974;28;20128;-73
2023/05/27 02:57:23;;;;;;;23.40;6.22;;;8.90;99.90;;;;;;5068821;28;20020;-74
2023/05/27 02:59:49;;;;;;;25.70;5.90;;;8.90;99.90;;;;;;5059314;28;20029;-73
2023/05/27 03:02:14;;;;;;;21.23;6.20;;;8.90;99.90;;;;;;5072230;28;20029;-74
2023/05/27 03:04:40;;;;;;;23.75;5.78;;;8.90;99.90;;;;;;5063664;28;20123;-73
2023/05/27 03:07:06;;;;;;;24.95;6.28;;;8.80;99.90;;;;;;5073718;28;20418;-74
2023/05/27 03:09:31;;;;;;;30.55;6.72;;;8.80;99.90;;;;;;5043060;28;20483;-72
2023/05/27 03:11:57;;;;;;;22.60;6.38;;;8.80;99.90;;;;;;5071980;28;20051;-73
2023/05/27 03:14:22;;;;;;;20.00;6.22;;;8.80;99.90;;;;;;5060498;28;20036;-74
2023/05/27 03:16:48;;;;;;;23.25;6.00;;;8.80;99.90;;;;;;5067159;28;20032;-73
2023/05/27 03:19:14;;;;;;;21.52;6.80;;;8.80;99.90;;;;;;5067114;28;20123;-72
2023/05/27 03:21:40;;;;;;;21.98;5.68;;;8.80;99.90;;;;;;5060198;28;20043;-74
2023/05/27 03:24:05;;;;;;;23.02;6.15;;;8.80;99.90;;;;;;5074030;28;20036;-76
2023/05/27 03:26:31;;;;;;;21.10;6.03;;;8.80;99.90;;;;;;5061646;28;20078;-74
2023/05/27 03:28:56;;;;;;;20.75;6.10;;;8.80;99.90;;;;;;5065922;28;20176;-74
2023/05/27 03:31:22;;;;;;;26.17;6.15;;;8.80;99.90;;;;;;5068295;28;20037;-74
2023/05/27 03:33:49;;;;;;;18.90;6.35;;;8.80;99.90;;;;;;5040992;28;20037;-74
2023/05/27 03:36:14;;;;;;;25.45;7.38;;;8.80;99.90;;;;;;5053729;28;20358;-73
2023/05/27 03:38:40;;;;;;;26.00;7.00;;;8.70;99.90;;;;;;5059671;28;20040;-74
2023/05/27 03:41:06;;;;;;;26.98;6.97;;;8.70;99.90;;;;;;5055986;28;20036;-72
2023/05/27 03:43:31;;;;;;;28.08;7.05;;;8.70;99.90;;;;;;5069227;28;20029;-73
2023/05/27 03:45:57;;;;;;;22.48;6.60;;;8.70;99.90;;;;;;5058673;28;20032;-74
2023/05/27 03:48:22;;;;;;;23.50;6.90;;;8.70;99.90;;;;;;5069494;28;20033;-75
2023/05/27 03:50:48;;;;;;;21.15;6.53;;;8.70;99.90;;;;;;5054490;28;20021;-73
2023/05/27 03:53:14;;;;;;;22.33;7.10;;;8.70;99.90;;;;;;5066338;28;20040;-73
2023/05/27 03:55:39;;;;;;;22.08;6.40;;;8.70;99.90;;;;;;5059669;28;20096;-74
2023/05/27 03:58:05;;;;;;;25.25;7.00;;;8.70;99.90;;;;;;5067689;28;20021;-76
2023/05/27 04:00:30;;;;;;;25.58;6.95;;;8.70;99.90;;;;;;5074698;28;20060;-73
2023/05/27 04:02:56;;;;;;;31.45;8.02;;;8.70;99.90;;;;;;5067093;28;20458;-73
2023/05/27 04:05:22;;;;;;;19.85;6.82;;;8.80;99.90;;;;;;5069370;28;20017;-72
2023/05/27 04:07:48;;;;;;;16.83;6.50;;;8.70;99.90;;;;;;5064171;28;20392;-73
2023/05/27 04:10:13;;;;;;;21.55;6.57;;;8.80;99.90;;;;;;5064389;28;20477;-74
2023/05/27 04:12:41;;;;;;;19.27;6.97;;;8.90;99.90;;;;;;5046895;28;20098;-73
2023/05/27 04:15:08;;;;;;;20.90;6.78;;;8.90;99.90;;;;;;5065644;28;20024;-72
2023/05/27 04:17:33;;;;;;;25.20;7.55;;;8.90;99.90;;;;;;5062061;28;20116;-72
2023/05/27 04:19:59;;;;;;;19.65;6.03;;;9.00;99.90;;;;;;5065683;28;20171;-72
2023/05/27 04:22:25;;;;;;;20.80;7.22;;;9.10;99.90;;;;;;5068883;28;20044;-72
2023/05/27 04:24:52;;;;;;;21.00;6.65;;;9.10;99.90;;;;;;5069633;28;20495;-73
2023/05/27 04:27:19;;;;;;;23.10;6.35;;;9.20;99.90;;;;;;5066777;28;20028;-74
2023/05/27 04:29:45;;;;;;;21.17;6.20;;;9.30;99.90;;;;;;5066522;28;20072;-73
2023/05/27 04:32:12;;;;;;;18.45;6.03;;;9.30;99.90;;;;;;5065359;28;20027;-74
2023/05/27 04:34:41;;;;;;;16.70;6.10;;;9.40;99.90;;;;;;5049447;28;20040;-75
2023/05/27 04:37:09;;;;;;;20.95;6.45;;;9.50;99.90;;;;;;5065321;28;20020;-73
2023/05/27 04:39:35;;;;;;;17.08;5.57;;;9.60;99.90;;;;;;5063481;28;20083;-77
2023/05/27 04:42:01;;;;;;;21.35;5.88;;;9.70;99.90;;;;;;5051091;28;20062;-74
2023/05/27 04:44:28;;;;;;;17.90;5.93;;;9.80;99.90;;;;;;5067157;28;20487;-72
2023/05/27 04:46:54;;;;;;;16.65;6.30;;;9.90;99.90;;;;;;5064718;28;20025;-72
2023/05/27 04:49:20;;;;;;;20.48;6.03;;;10.00;99.90;;;;;;5070583;28;20157;-73
2023/05/27 04:51:47;;;;;;;17.45;5.28;;;10.10;99.90;;;;;;5070433;28;20392;-72
2023/05/27 04:54:12;;;;;;;20.08;6.00;;;10.30;99.90;;;;;;5072023;28;20392;-73
2023/05/27 04:56:38;;;;;;;21.00;5.60;;;10.50;99.90;;;;;;5067123;28;20465;-73
2023/05/27 04:59:05;;;;;;;18.77;5.05;;;10.70;99.90;;;;;;5068899;28;20025;-72
2023/05/27 05:01:48;;;;;;;22.63;6.03;;;11.00;99.90;;;;;;5076771;28;20032;-71
2023/05/27 05:04:14;;;;;;;20.08;4.75;;;11.20;99.90;;;;;;5069147;28;20480;-72
2023/05/27 05:06:40;;;;;;;19.02;5.30;;;11.40;99.90;;;;;;5081392;28;20021;-71
2023/05/27 05:09:09;;;;;;;25.13;5.82;;;11.60;99.90;;;;;;5050811;28;20048;-76
2023/05/27 05:11:34;;;;;;;19.67;5.80;;;11.80;99.90;;;;;;5068615;28;20107;-73
2023/05/27 05:14:00;;;;;;;21.42;5.47;;;12.00;99.90;;;;;;5056829;28;20108;-73
2023/05/27 05:16:25;;;;;;;17.35;4.47;;;12.20;99.90;;;;;;5067654;28;20461;-76
2023/05/27 05:18:51;;;;;;;15.32;4.80;;;12.40;99.90;;;;;;5061872;28;20455;-73
2023/05/27 05:21:16;;;;;;;22.92;5.22;;;12.50;99.90;;;;;;5061167;28;20032;-74
2023/05/27 05:23:42;;;;;;;18.65;4.47;;;12.60;99.90;;;;;;5042875;28;20060;-73
2023/05/27 05:26:08;;;;;;;21.58;5.43;;;12.70;99.90;;;;;;5070170;28;20051;-74
2023/05/27 05:28:36;;;;;;;16.58;4.50;;;12.70;99.90;;;;;;5059682;28;20407;-74
2023/05/27 05:31:02;;;;;;;21.17;4.35;;;12.70;99.90;;;;;;5070617;28;20616;-76
2023/05/27 05:33:28;;;;;;;21.48;4.65;;;12.60;99.90;;;;;;5068138;28;20131;-75
2023/05/27 05:35:55;;;;;;;14.98;3.72;;;12.50;99.90;;;;;;5074418;28;20104;-75
2023/05/27 05:38:21;;;;;;;25.10;4.85;;;12.40;99.90;;;;;;5050648;28;20079;-73
2023/05/27 05:40:49;;;;;;;19.80;3.92;;;12.30;99.90;;;;;;5053841;28;20427;-72
2023/05/27 05:43:15;;;;;;;17.85;4.22;;;12.20;99.90;;;;;;5065174;28;20549;-72
2023/05/27 05:45:40;;;;;;;25.15;4.63;;;12.10;99.90;;;;;;5056979;28;20112;-73
2023/05/27 05:48:06;;;;;;;24.55;4.60;;;12.10;99.90;;;;;;5069230;28;20443;-77
2023/05/27 05:50:32;;;;;;;19.10;4.20;;;12.00;99.90;;;;;;5041447;28;20027;-76
2023/05/27 05:52:58;;;;;;;18.08;4.43;;;11.90;99.90;;;;;;5063207;28;20053;-73
2023/05/27 05:55:28;;;;;;;15.20;4.32;;;11.80;99.90;;;;;;5066401;28;20093;-74
2023/05/27 05:57:53;;;;;;;25.33;4.53;;;11.80;99.90;;;;;;5063782;28;20051;-75
2023/05/27 06:00:19;;;;;;;20.25;5.10;;;11.90;99.90;;;;;;5068010;28;20021;-74
2023/05/27 06:02:45;;;;;;;21.63;5.03;;;12.20;99.90;;;;;;5054432;28;20089;-73
2023/05/27 06:05:11;;;;;;;22.98;4.30;;;12.90;99.90;;;;;;5052465;28;20043;-78
2023/05/27 06:07:36;;;;;;;21.40;4.63;;;13.90;99.90;;;;;;5067666;28;20032;-74
2023/05/27 06:10:02;;;;;;;20.88;4.28;;;15.00;99.90;;;;;;5056301;28;20445;-73
2023/05/27 06:12:27;;;;;;;18.77;4.15;;;16.00;99.90;;;;;;5067530;28;20527;-74
2023/05/27 06:14:53;;;;;;;20.55;3.67;;;16.90;99.90;;;;;;5062111;28;20062;-74
2023/05/27 06:17:18;;;;;;;18.90;3.83;;;17.70;99.90;;;;;;5041801;28;20112;-77
2023/05/27 06:19:44;;;;;;;18.02;3.83;;;18.40;99.90;;;;;;5068559;28;20020;-76
2023/05/27 06:22:10;;;;;;;15.65;3.78;;;19.10;98.70;;;;;;5055886;28;20038;-74
2023/05/27 06:24:35;;;;;;;16.58;3.78;;;19.70;97.50;;;;;;5066088;28;20063;-74
2023/05/27 06:27:01;;;;;;;16.95;3.33;;;20.10;96.70;;;;;;5065171;28;20483;-77
2023/05/27 06:29:27;;;;;;;14.23;3.63;;;20.60;95.80;;;;;;5064900;28;20040;-74
2023/05/27 06:31:54;;;;;;;19.98;4.40;;;21.10;95.00;;;;;;5095391;28;20050;-73
2023/05/27 06:34:19;;;;;;;11.88;3.08;;;21.40;94.30;;;;;;5096645;28;20081;-75
2023/05/27 06:36:48;;;;;;;17.02;3.80;;;21.70;93.50;;;;;;5087499;28;20028;-74
2023/05/27 06:39:15;;;;;;;16.02;3.58;;;21.90;92.70;;;;;;5087125;28;20099;-76
2023/05/27 06:41:41;;;;;;;15.75;3.42;;;22.10;92.60;;;;;;5090920;28;20472;-75
2023/05/27 06:44:06;;;;;;;14.02;3.30;;;22.20;92.10;;;;;;5090301;28;20016;-75
2023/05/27 06:46:32;;;;;;;16.08;3.78;;;22.40;91.70;;;;;;5076078;28;20112;-76
2023/05/27 06:48:58;;;;;;;14.82;3.90;;;22.80;91.20;;;;;;5086240;28;20100;-73
2023/05/27 06:51:23;;;;;;;13.48;3.15;;;23.20;90.70;;;;;;5075946;28;20035;-74
2023/05/27 06:53:49;;;;;;;13.48;3.30;;;23.60;90.20;;;;;;5076279;28;20036;-74
2023/05/27 06:56:14;;;;;;;11.80;3.05;;;23.90;89.40;;;;;;5076246;28;20085;-74
2023/05/27 06:58:41;;;;;;;15.38;3.92;;;24.10;89.00;;;;;;5075583;28;20027;-75
2023/05/27 07:01:07;;;;;;;16.15;4.07;;;24.40;87.60;;;;;;5088243;28;20131;-73
2023/05/27 07:03:33;;;;;;;19.15;4.32;;;24.70;86.40;;;;;;5095904;28;20024;-73
2023/05/27 07:05:58;;;;;;;12.50;3.92;;;24.80;86.00;;;;;;5096114;28;20115;-74
2023/05/27 07:08:24;;;;;;;15.38;4.25;;;24.70;85.60;;;;;;5095487;28;20032;-75
2023/05/27 07:10:50;;;;;;;14.48;4.07;;;24.90;85.50;;;;;;5096474;28;20031;-75
2023/05/27 07:13:16;;;;;;;17.80;3.80;;;25.30;84.60;;;;;;5095897;28;20359;-73
2023/05/27 07:15:42;;;;;;;13.23;3.75;;;25.40;83.80;;;;;;5094523;28;20028;-74
2023/05/27 07:18:07;;;;;;;22.52;3.88;;;25.70;83.40;;;;;;5083979;28;20032;-74
2023/05/27 07:20:34;;;;;;;17.90;4.45;;;25.80;82.40;;;;;;5075675;28;20035;-73
2023/05/27 07:23:00;;;;;;;16.77;3.42;;;25.70;82.30;;;;;;5085123;28;20111;-74
2023/05/27 07:25:26;;;;;;;14.38;3.72;;;25.50;83.50;;;;;;5095969;28;20063;-76
2023/05/27 07:27:51;;;;;;;13.88;4.38;;;25.50;82.50;;;;;;5095615;28;20095;-75
2023/05/27 07:30:17;;;;;;;14.50;4.20;;;25.50;83.00;;;;;;5082131;28;20484;-73
2023/05/27 07:32:43;;;;;;;14.20;3.78;;;25.50;82.20;;;;;;5038023;28;20036;-73
2023/05/27 07:35:08;;;;;;;17.42;3.88;;;25.40;82.30;;;;;;5055514;28;20470;-73
2023/05/27 07:37:34;;;;;;;14.63;4.00;;;25.20;82.70;;;;;;5062018;28;20039;-72
2023/05/27 07:40:00;;;;;;;16.13;4.15;;;24.60;83.70;;;;;;5075384;28;20039;-72
2023/05/27 07:42:25;;;;;;;20.02;5.53;;;23.70;85.40;;;;;;5058091;28;20025;-76
2023/05/27 07:44:51;;;;;;;17.85;5.20;;;23.20;86.80;;;;;;5070463;28;20035;-71
2023/05/27 07:47:16;;;;;;;16.77;5.10;;;22.90;87.30;;;;;;5064393;28;20441;-74
2023/05/27 07:49:42;;;;;;;19.70;5.97;;;22.90;87.80;;;;;;5053422;28;20052;-74
2023/05/27 07:52:08;;;;;;;13.82;4.25;;;22.90;88.00;;;;;;5069200;28;20051;-72
2023/05/27 07:54:34;;;;;;;18.10;4.50;;;22.70;87.40;;;;;;5075160;28;20468;-74
2023/05/27 07:56:59;;;;;;;17.60;3.55;;;22.60;87.70;;;;;;5056312;28;20020;-75
2023/05/27 07:59:25;;;;;;;12.32;3.55;;;22.60;88.50;;;;;;5074526;28;20030;-72
2023/05/27 08:01:50;;;;;;;15.20;4.05;;;22.70;87.90;;;;;;5061888;28;20450;-75
2023/05/27 08:04:16;;;;;;;15.20;3.80;;;22.80;87.60;;;;;;5054877;28;20029;-72
2023/05/27 08:06:42;;;;;;;14.93;3.90;;;22.80;87.40;;;;;;5037064;28;20059;-72
2023/05/27 08:09:08;;;;;;;14.70;3.90;;;22.90;88.00;;;;;;5073207;28;20035;-72
2023/05/27 08:11:33;;;;;;;16.48;4.03;;;22.90;87.80;;;;;;5056226;28;20041;-73
2023/05/27 08:13:59;;;;;;;17.15;3.85;;;23.10;87.40;;;;;;5070895;28;20476;-73
2023/05/27 08:16:25;;;;;;;16.30;3.67;;;23.50;86.70;;;;;;5069515;28;20033;-72
2023/05/27 08:18:50;;;;;;;15.95;4.07;;;24.10;85.30;;;;;;5053648;28;20082;-73
2023/05/27 08:21:16;;;;;;;16.08;3.95;;;24.50;85.00;;;;;;5064845;28;20067;-73
2023/05/27 08:23:42;;;;;;;14.50;3.88;;;25.10;83.10;;;;;;5054486;28;20117;-72
2023/05/27 08:26:08;;;;;;;18.83;4.72;;;25.50;81.80;;;;;;5053959;28;20056;-73
2023/05/27 08:28:36;;;;;;;11.90;3.58;;;25.40;81.70;;;;;;5060971;28;20021;-75
2023/05/27 08:31:02;;;;;;;15.23;3.85;;;25.20;82.00;;;;;;5071802;28;20489;-72
2023/05/27 08:33:29;;;;;;;16.00;4.35;;;25.70;81.90;;;;;;5066806;28;20039;-72
2023/05/27 08:35:56;;;;;;;14.85;4.50;;;26.20;80.60;;;;;;5060349;28;20056;-73
2023/05/27 08:38:21;;;;;;;12.73;4.10;;;26.60;79.20;;;;;;5056456;28;20025;-72
2023/05/27 08:40:48;;;;;;;14.63;4.30;;;27.30;79.00;;;;;;5073724;28;20362;-73
2023/05/27 08:43:14;;;;;;;13.82;4.15;;;27.80;77.70;;;;;;5055050;28;20407;-73
2023/05/27 08:45:43;;;;;;;14.20;4.60;;;28.60;76.80;;;;;;5067459;28;20027;-74
2023/05/27 08:48:10;;;;;;;18.05;4.57;;;28.90;75.70;;;;;;5074034;28;20086;-73
2023/05/27 08:50:36;;;;;;;16.80;4.63;;;29.20;75.30;;;;;;5059705;28;20044;-72
2023/05/27 08:53:02;;;;;;;16.40;5.50;;;29.70;74.90;;;;;;5035086;28;20029;-73
2023/05/27 08:55:30;;;;;;;14.70;3.85;;;30.10;73.40;;;;;;5054125;28;20037;-72
2023/05/27 08:58:01;;;;;;;14.70;3.83;;;30.30;72.30;;;;;;5036045;28;20021;-73
2023/05/27 09:00:26;;;;;;;10.13;3.30;;;30.50;72.10;;;;;;5055039;28;20119;-72
2023/05/27 09:02:56;;;;;;;14.27;3.83;;;30.50;71.70;;;;;;5060702;28;20116;-71
2023/05/27 09:05:25;;;;;;;13.52;3.85;;;30.40;71.10;;;;;;5035617;28;20029;-75
2023/05/27 09:07:51;;;;;;;15.23;4.13;;;30.20;71.20;;;;;;5053003;28;20079;-74
2023/05/27 09:10:17;;;;;;;14.18;4.40;;;30.10;71.60;;;;;;5052264;28;20108;-74
2023/05/27 09:12:47;;;;;;;17.73;3.97;;;30.50;71.10;;;;;;5060065;28;20444;-71
2023/05/27 09:15:13;;;;;;;11.90;4.00;;;30.80;70.60;;;;;;5038785;28;20061;-73
2023/05/27 09:17:43;;;;;;;13.45;4.13;;;30.80;70.40;;;;;;5052326;28;20037;-72
2023/05/27 09:20:10;;;;;;;12.65;4.03;;;30.70;69.80;;;;;;5065725;28;20362;-73
2023/05/27 09:22:36;;;;;;;14.93;4.32;;;30.70;69.70;;;;;;5052462;28;20029;-72
2023/05/27 09:25:02;;;;;;;14.20;4.05;;;30.80;69.80;;;;;;5052262;28;20496;-73
2023/05/27 09:27:30;;;;;;;14.23;4.18;;;30.80;69.40;;;;;;5052699;28;20025;-76
2023/05/27 09:29:56;;;;;;;17.88;4.35;;;30.80;69.50;;;;;;5070328;28;20083;-74
2023/05/27 09:32:26;;;;;;;12.00;3.83;;;30.70;69.60;;;;;;5072958;28;20024;-73
2023/05/27 09:34:53;;;;;;;15.40;3.83;;;30.70;68.70;;;;;;5053536;28;20119;-72
2023/05/27 09:37:20;;;;;;;14.73;4.10;;;30.90;68.60;;;;;;5058132;28;20029;-72
2023/05/27 09:39:46;;;;;;;16.90;3.95;;;30.90;68.70;;;;;;5069073;28;20021;-72
2023/05/27 09:42:13;;;;;;;13.02;4.07;;;30.90;68.40;;;;;;5061597;28;20023;-72
2023/05/27 09:44:40;;;;;;;13.20;4.00;;;31.00;68.20;;;;;;5052513;28;20024;-72
2023/05/27 09:47:11;;;;;;;11.80;4.15;;;31.10;68.00;;;;;;5065393;28;20020;-73
2023/05/27 09:49:37;;;;;;;;;;;31.10;67.80;;;;;;5070763;28;20032;-72
2023/05/27 09:52:06;;;;;;;11.02;3.83;;;31.40;67.60;;;;;;5056739;28;19969;-72
2023/05/27 09:54:32;;;;;;;13.15;3.88;;;31.60;67.20;;;;;;5064285;28;20393;-73
2023/05/27 09:56:59;;;;;;;17.77;4.10;;;31.60;67.50;;;;;;5064150;28;20036;-71
2023/05/27 09:59:25;;;;;;;16.40;4.10;;;31.90;66.80;;;;;;5057468;28;20078;-70
2023/05/27 10:01:53;;;;;;;10.70;3.60;;;32.20;66.50;;;;;;5068709;28;20025;-74
2023/05/27 10:04:19;;;;;;;15.68;4.13;;;32.00;66.40;;;;;;5057654;28;20073;-72
2023/05/27 10:06:45;;;;;;;13.45;3.63;;;31.80;66.90;;;;;;5062033;28;20086;-72
2023/05/27 10:09:13;;;;;;;15.48;4.55;;;32.00;66.40;;;;;;5056108;28;20491;-72
2023/05/27 10:11:40;;;;;;;16.38;3.55;;;32.30;66.00;;;;;;5051103;28;20024;-72
2023/05/27 10:14:06;;;;;;;15.82;4.72;;;32.80;65.90;;;;;;5056860;28;20033;-72
2023/05/27 10:16:34;;;;;;;13.23;3.70;;;33.20;65.30;;;;;;5064168;28;20025;-72
2023/05/27 10:19:00;;;;;;;16.40;4.80;;;33.20;65.00;;;;;;5060324;28;20029;-70
2023/05/27 10:21:31;;;;;;;14.00;4.22;;;33.30;64.20;;;;;;5064315;28;20062;-71
2023/05/27 10:24:01;;;;;;;14.77;3.72;;;33.10;64.20;;;;;;5072108;28;20016;-72
2023/05/27 10:26:38;;;;;;;15.43;4.18;;;33.00;64.00;;;;;;5070510;28;20025;-74
2023/05/27 10:29:14;;;;;;;12.63;3.63;;;32.90;64.20;;;;;;5058655;28;20039;-74
2023/05/27 10:31:47;;;;;;;13.40;3.85;;;33.10;64.30;;;;;;5060192;28;20025;-72
2023/05/27 10:34:12;;;;;;;14.27;3.83;;;33.50;64.50;;;;;;5050567;28;20036;-72
2023/05/27 10:36:38;;;;;;;13.73;3.90;;;34.10;63.70;;;;;;5065743;28;20090;-73
2023/05/27 10:39:05;;;;;;;13.57;3.90;;;34.60;62.70;;;;;;5071983;28;20082;-70
2023/05/27 10:41:58;;;;;;;15.88;4.20;;;34.60;62.10;;;;;;5066636;28;20021;-72
2023/05/27 10:44:32;;;;;;;13.35;3.80;;;34.80;62.50;;;;;;5052260;28;20112;-74
2023/05/27 10:47:13;;;;;;;13.38;4.22;;;35.00;62.20;;;;;;5070580;28;20120;-72
2023/05/27 10:49:40;;;;;;;11.05;3.85;;;34.80;62.00;;;;;;5062562;28;20027;-72
2023/05/27 10:52:10;;;;;;;16.00;4.07;;;34.80;62.10;;;;;;5068041;28;20067;-72
2023/05/27 10:54:37;;;;;;;16.67;4.93;;;35.20;61.40;;;;;;5051531;28;20033;-72
2023/05/27 10:57:03;;;;;;;14.32;4.55;;;35.30;61.20;;;;;;5070169;28;20032;-74
2023/05/27 10:59:53;;;;;;;14.80;3.95;;;35.10;61.40;;;;;;5064775;28;20025;-73
2023/05/27 11:02:20;;;;;;;11.77;4.05;;;35.20;60.40;;;;;;5074380;28;20472;-73
2023/05/27 11:04:46;;;;;;;17.45;4.57;;;35.00;60.30;;;;;;5061646;28;20071;-72
2023/05/27 11:07:17;;;;;;;14.40;4.20;;;34.70;60.70;;;;;;5064703;28;20099;-73
2023/05/27 11:09:48;;;;;;;16.23;4.72;;;34.60;60.80;;;;;;5046485;28;20033;-73
2023/05/27 11:12:19;;;;;;;16.30;4.53;;;34.30;61.10;;;;;;5052185;28;20029;-74
2023/05/27 11:15:06;;;;;;;16.25;4.38;;;34.00;61.20;;;;;;5061745;28;20051;-75
2023/05/27 11:17:33;;;;;;;14.55;4.35;;;34.10;61.70;;;;;;5044055;28;20031;-74
2023/05/27 11:19:59;;;;;;;14.52;4.55;;;34.30;61.40;;;;;;5071450;28;20066;-74
2023/05/27 11:22:25;;;;;;;15.40;4.30;;;34.20;61.20;;;;;;5061404;28;20020;-72
2023/05/27 11:24:57;;;;;;;14.65;4.28;;;34.30;61.60;;;;;;5068598;28;20027;-72
2023/05/27 11:27:23;;;;;;;13.48;4.57;;;34.70;61.00;;;;;;5070592;28;20024;-74
2023/05/27 11:29:52;;;;;;;15.77;4.20;;;34.90;60.30;;;;;;5064162;28;20162;-75
2023/05/27 11:32:19;;;;;;;15.02;3.95;;;35.00;60.50;;;;;;5058574;28;20053;-72
2023/05/27 11:34:45;;;;;;;14.93;4.50;;;35.00;60.50;;;;;;5045364;28;20040;-73
2023/05/27 11:37:12;;;;;;;17.08;4.70;;;35.00;60.70;;;;;;5073085;28;20032;-75
2023/05/27 11:39:37;;;;;;;15.18;4.70;;;35.00;60.10;;;;;;5075400;28;20471;-72
2023/05/27 11:42:08;;;;;;;11.45;4.45;;;35.00;59.70;;;;;;5069097;28;20033;-72
2023/05/27 11:44:34;;;;;;;15.02;4.25;;;35.00;60.00;;;;;;5074100;28;20111;-74
2023/05/27 11:47:00;;;;;;;16.05;4.57;;;35.20;60.00;;;;;;5074796;28;20035;-72
2023/05/27 11:49:30;;;;;;;17.33;4.63;;;35.20;60.00;;;;;;5073510;28;20028;-73
2023/05/27 11:51:56;;;;;;;17.27;4.50;;;35.00;60.50;;;;;;5062656;28;20066;-73
2023/05/27 11:54:26;;;;;;;17.92;4.72;;;34.90;60.30;;;;;;5062757;28;20515;-71
2023/05/27 11:56:54;;;;;;;13.50;4.65;;;34.90;60.10;;;;;;5059474;28;20028;-74
2023/05/27 11:59:21;;;;;;;15.43;4.88;;;35.10;60.50;;;;;;5070504;28;20028;-73
2023/05/27 12:01:48;;;;;;;14.20;3.85;;;35.40;59.70;;;;;;5073593;28;20388;-72
2023/05/27 12:04:13;;;;;;;12.48;4.13;;;35.70;59.60;;;;;;5069301;28;20020;-74
2023/05/27 12:06:43;;;;;;;15.82;4.65;;;35.40;59.70;;;;;;5054834;28;20051;-72
2023/05/27 12:09:09;;;;;;;13.25;4.05;;;35.40;59.80;;;;;;5061776;28;20427;-72
2023/05/27 12:11:35;;;;;;;17.33;4.72;;;35.40;59.20;;;;;;5063460;28;20453;-70
2023/05/27 12:14:01;;;;;;;18.65;5.13;;;35.30;59.50;;;;;;5060347;28;20361;-73
2023/05/27 12:16:27;;;;;;;15.18;4.88;;;35.20;59.60;;;;;;5053906;28;20021;-71
2023/05/27 12:18:52;;;;;;;17.42;5.20;;;34.60;59.90;;;;;;5067581;28;20082;-73
2023/05/27 12:21:19;;;;;;;13.38;4.85;;;34.20;60.20;;;;;;5073519;28;20024;-74
2023/05/27 12:23:45;;;;;;;16.15;4.32;;;34.00;60.40;;;;;;5062623;28;20029;-71
2023/05/27 12:26:13;;;;;;;12.77;4.90;;;34.00;60.30;;;;;;5070398;28;20437;-72
2023/05/27 12:28:39;;;;;;;14.80;4.30;;;33.80;60.30;;;;;;5069916;28;20116;-72
2023/05/27 12:31:05;;;;;;;15.13;5.05;;;33.50;60.80;;;;;;5060698;28;20052;-72
2023/05/27 12:33:31;;;;;;;17.77;4.80;;;33.30;60.70;;;;;;5063345;28;20726;-72
2023/05/27 12:36:00;;;;;;;15.70;4.68;;;33.20;60.80;;;;;;5071199;28;20028;-76
2023/05/27 12:38:26;;;;;;;17.77;4.68;;;33.20;61.10;;;;;;5054510;28;20090;-72
2023/05/27 12:40:52;;;;;;;17.15;4.90;;;33.30;60.90;;;;;;5069429;28;20025;-70